Terminal Aerodrome Forecast
Issued by NWS Green Bay, WI

Home | Current Version | Previous Version | Text Only | Print | Product List | Glossary On
Versions: 1 2 3 4 5 6 7 8 9 10 11 12 13 14 15 16 17 18 19 20 21 22 23 24
000
FTUS43 KGRB 032335
TAFGRB
TAF
KGRB 032335Z 0400/0424 14010KT P6SM FEW050 SCT100
     FM040400 15006KT P6SM SCT050 BKN100 WS005/19030KT
     FM040900 17005KT P6SM SCT025 OVC050
      TEMPO 0410/0414 4SM -SHRA BKN022 OVC050
     FM041500 22008KT P6SM SCT025 BKN070
     FM041900 29007G15KT P6SM SCT035=

USA.gov is the U.S. government's official web portal to all federal, state and local government web resources and services.